createdAt,value
2023-04-03T00:01:06.535Z,0.70
2023-04-03T00:03:34.514Z,1.52
2023-04-03T00:06:04.272Z,1.10
2023-04-03T00:08:31.924Z,0.93
2023-04-03T00:10:59.258Z,0.98
2023-04-03T00:13:26.689Z,1.10
2023-04-03T00:15:54.487Z,1.45
2023-04-03T00:21:04.693Z,0.73
2023-04-03T00:23:32.046Z,0.60
2023-04-03T00:25:59.391Z,1.00
2023-04-03T00:28:31.757Z,0.82
2023-04-03T00:30:59.150Z,1.15
2023-04-03T00:33:26.538Z,0.70
2023-04-03T00:38:34.485Z,0.55
2023-04-03T00:41:01.953Z,0.77
2023-04-03T00:43:29.322Z,0.88
2023-04-03T00:45:57.748Z,0.73
2023-04-03T00:51:07.483Z,1.45
2023-04-03T00:53:39.067Z,0.68
2023-04-03T00:56:08.011Z,0.70
2023-04-03T00:58:36.162Z,0.93
2023-04-03T01:01:07.186Z,0.75
2023-04-03T01:03:34.607Z,0.88
2023-04-03T01:06:02.114Z,1.10
2023-04-03T01:08:29.491Z,0.77
2023-04-03T01:10:58.192Z,0.88
2023-04-03T01:13:27.479Z,0.98
2023-04-03T01:15:55.028Z,0.95
2023-04-03T01:18:22.743Z,1.10
2023-04-03T01:21:11.261Z,0.98
2023-04-03T01:23:45.412Z,0.80
2023-04-03T01:26:14.170Z,1.00
2023-04-03T01:28:41.828Z,1.38
2023-04-03T01:31:14.402Z,1.60
2023-04-03T01:33:43.855Z,0.98
2023-04-03T01:36:12.025Z,1.10
2023-04-03T01:38:39.425Z,0.70
2023-04-03T01:41:06.775Z,0.77
2023-04-03T01:43:34.128Z,1.10
2023-04-03T01:46:01.529Z,1.17
2023-04-03T01:48:28.919Z,1.38
2023-04-03T01:50:57.617Z,0.85
2023-04-03T01:53:24.946Z,0.98
2023-04-03T01:55:52.333Z,0.85
2023-04-03T01:58:19.691Z,0.80
2023-04-03T02:00:47.235Z,1.00
2023-04-03T02:03:14.601Z,0.73
2023-04-03T02:05:42.025Z,1.05
2023-04-03T02:08:11.039Z,1.35
2023-04-03T02:10:38.945Z,1.00
2023-04-03T02:13:06.829Z,1.48
2023-04-03T02:15:34.296Z,1.08
2023-04-03T02:18:01.848Z,0.57
2023-04-03T02:20:35.349Z,1.30
2023-04-03T02:23:03.511Z,1.05
2023-04-03T02:25:33.919Z,1.20
2023-04-03T02:28:01.336Z,1.67
2023-04-03T02:30:28.768Z,0.90
2023-04-03T02:32:56.948Z,1.67
2023-04-03T02:35:24.457Z,1.02
2023-04-03T02:37:51.971Z,1.25
2023-04-03T02:40:19.547Z,1.23
2023-04-03T02:42:48.400Z,1.08
2023-04-03T02:45:15.828Z,0.98
2023-04-03T02:47:43.238Z,0.70
2023-04-03T02:50:11.001Z,1.60
2023-04-03T02:52:38.447Z,2.63
2023-04-03T02:55:06.234Z,2.90
2023-04-03T02:57:33.757Z,1.25
2023-04-03T03:00:02.787Z,1.15
2023-04-03T03:02:30.291Z,3.13
2023-04-03T03:04:57.829Z,1.92
2023-04-03T03:07:25.614Z,1.70
2023-04-03T03:09:53.019Z,1.30
2023-04-03T03:12:22.588Z,2.22
2023-04-03T03:14:50.364Z,3.05
2023-04-03T03:17:19.398Z,1.80
2023-04-03T03:19:47.110Z,1.55
2023-04-03T03:22:14.535Z,1.00
2023-04-03T03:24:41.945Z,1.50
2023-04-03T03:27:09.341Z,1.00
2023-04-03T03:29:36.775Z,1.55
2023-04-03T03:32:04.270Z,0.98
2023-04-03T03:34:32.995Z,1.65
2023-04-03T03:37:00.361Z,1.35
2023-04-03T03:39:28.079Z,0.90
2023-04-03T03:41:55.708Z,0.88
2023-04-03T03:44:23.468Z,2.25
2023-04-03T03:46:50.993Z,2.90
2023-04-03T03:49:18.469Z,1.92
2023-04-03T03:51:47.887Z,0.98
2023-04-03T03:54:15.414Z,1.05
2023-04-03T03:56:42.800Z,1.55
2023-04-03T03:59:10.378Z,1.65
2023-04-03T04:01:37.911Z,1.13
2023-04-03T04:04:05.590Z,1.42
2023-04-03T04:06:33.067Z,1.45
2023-04-03T04:09:01.809Z,1.00
2023-04-03T04:11:29.230Z,1.20
2023-04-03T04:13:56.643Z,1.30
2023-04-03T04:16:24.063Z,0.98
2023-04-03T04:18:51.578Z,1.20
2023-04-03T04:21:18.982Z,1.33
2023-04-03T04:23:46.520Z,1.63
2023-04-03T04:26:15.368Z,1.15
2023-04-03T04:28:42.759Z,1.40
2023-04-03T04:31:10.582Z,1.23
2023-04-03T04:33:37.991Z,1.42
2023-04-03T04:36:05.536Z,1.58
2023-04-03T04:38:32.985Z,1.13
2023-04-03T04:41:00.381Z,1.55
2023-04-03T04:43:29.116Z,1.83
2023-04-03T04:46:03.699Z,1.45
2023-04-03T04:48:32.761Z,1.40
2023-04-03T04:51:00.527Z,1.55
2023-04-03T04:53:28.032Z,1.45
2023-04-03T04:55:55.561Z,1.90
2023-04-03T04:58:23.144Z,1.70
2023-04-03T05:00:52.312Z,1.33
2023-04-03T05:03:19.703Z,1.63
2023-04-03T05:05:47.139Z,1.85
2023-04-03T05:08:14.518Z,1.48
2023-04-03T05:10:43.170Z,1.50
2023-04-03T05:13:10.713Z,1.58
2023-04-03T05:15:38.309Z,1.67
2023-04-03T05:18:07.449Z,1.83
2023-04-03T05:20:35.773Z,1.33
2023-04-03T05:23:03.277Z,1.55
2023-04-03T05:25:31.198Z,1.80
2023-04-03T05:27:58.613Z,1.05
2023-04-03T05:30:26.178Z,0.65
2023-04-03T05:32:53.769Z,0.93
2023-04-03T05:35:22.568Z,1.17
2023-04-03T05:37:50.468Z,1.50
2023-04-03T05:40:18.742Z,1.40
2023-04-03T05:42:46.309Z,1.30
2023-04-03T05:45:13.854Z,1.40
2023-04-03T05:47:41.372Z,4.80
2023-04-03T05:50:09.195Z,1.50
2023-04-03T05:52:40.037Z,1.30
2023-04-03T05:55:07.941Z,1.15
2023-04-03T05:57:35.771Z,1.30
2023-04-03T06:00:03.546Z,1.05
2023-04-03T06:02:32.545Z,1.10
2023-04-03T06:05:00.108Z,0.77
2023-04-03T06:07:29.456Z,0.95
2023-04-03T06:09:58.626Z,0.80
2023-04-03T06:12:26.189Z,1.02
2023-04-03T06:14:53.672Z,0.80
2023-04-03T06:17:21.272Z,0.88
2023-04-03T06:19:48.885Z,1.00
2023-04-03T06:22:16.794Z,0.63
2023-04-03T06:24:44.767Z,0.90
2023-04-03T06:27:13.628Z,0.70
2023-04-03T06:29:41.529Z,2.35
2023-04-03T06:32:08.954Z,0.73
2023-04-03T06:34:36.408Z,1.17
2023-04-03T06:37:03.880Z,1.10
2023-04-03T06:39:31.448Z,1.30
2023-04-03T06:41:58.866Z,0.80
2023-04-03T06:44:27.833Z,1.00
2023-04-03T06:46:55.677Z,0.80
2023-04-03T06:49:23.554Z,1.20
2023-04-03T06:51:51.517Z,0.82
2023-04-03T06:54:22.256Z,0.80
2023-04-03T06:56:49.963Z,0.90
2023-04-03T06:59:17.454Z,1.02
2023-04-03T07:01:46.343Z,1.13
2023-04-03T07:04:13.824Z,1.10
2023-04-03T07:06:41.592Z,1.10
2023-04-03T07:09:09.027Z,1.00
2023-04-03T07:11:37.994Z,1.13
2023-04-03T07:16:43.610Z,0.88
2023-04-03T07:19:12.787Z,1.17
2023-04-03T07:21:40.334Z,0.90
2023-04-03T07:24:10.036Z,0.90
2023-04-03T07:26:40.571Z,0.70
2023-04-03T07:29:08.146Z,0.80
2023-04-03T07:31:35.978Z,0.80
2023-04-03T07:34:03.837Z,0.80
2023-04-03T07:36:34.352Z,0.98
2023-04-03T07:39:02.105Z,1.20
2023-04-03T07:41:29.724Z,0.80
2023-04-03T07:43:57.710Z,0.93
2023-04-03T07:46:25.310Z,0.80
2023-04-03T07:48:52.768Z,1.10
2023-04-03T07:51:20.703Z,1.00
2023-04-03T07:53:49.530Z,1.13
2023-04-03T07:56:17.378Z,0.98
2023-04-03T07:58:44.806Z,0.80
2023-04-03T08:01:12.551Z,1.00
2023-04-03T08:03:40.315Z,0.98
2023-04-03T08:06:15.261Z,0.93
2023-04-03T08:08:43.512Z,1.45
2023-04-03T08:11:12.628Z,1.17
2023-04-03T08:13:42.453Z,1.15
2023-04-03T08:16:10.868Z,1.10
2023-04-03T08:18:38.299Z,1.02
2023-04-03T08:21:07.486Z,0.90
2023-04-03T08:23:34.871Z,1.38
2023-04-03T08:26:07.427Z,1.40
2023-04-03T08:28:36.197Z,1.23
2023-04-03T08:31:08.005Z,0.93
2023-04-03T08:33:36.690Z,1.00
2023-04-03T08:36:05.352Z,1.20
2023-04-03T08:38:33.167Z,0.97
2023-04-03T08:41:06.406Z,1.20
2023-04-03T08:43:38.826Z,0.50
2023-04-03T08:46:08.043Z,1.02
2023-04-03T08:48:37.174Z,0.68
2023-04-03T08:51:12.151Z,0.98
2023-04-03T08:53:42.446Z,1.10
2023-04-03T08:56:11.249Z,0.73
2023-04-03T08:58:43.271Z,1.10
2023-04-03T09:01:16.615Z,0.70
2023-04-03T09:03:44.490Z,1.10
2023-04-03T09:06:15.526Z,0.77
2023-04-03T09:08:45.404Z,0.98
2023-04-03T09:11:16.879Z,0.93
2023-04-03T09:13:48.536Z,1.10
2023-04-03T09:16:22.426Z,0.90
2023-04-03T09:18:55.361Z,1.00
2023-04-03T09:21:25.754Z,1.10
2023-04-03T09:23:53.733Z,1.05
2023-04-03T09:26:23.407Z,1.00
2023-04-03T09:28:52.962Z,0.80
2023-04-03T09:31:22.180Z,0.70
2023-04-03T09:33:51.334Z,1.30
2023-04-03T09:36:33.666Z,0.52
2023-04-03T09:39:05.451Z,0.80
2023-04-03T09:41:34.032Z,0.60
2023-04-03T09:44:03.172Z,0.60
2023-04-03T09:46:32.145Z,1.17
2023-04-03T09:49:08.278Z,0.52
2023-04-03T09:51:37.522Z,0.50
2023-04-03T09:54:26.346Z,0.80
2023-04-03T09:56:56.674Z,0.63
2023-04-03T09:59:25.850Z,0.60
2023-04-03T10:02:00.837Z,0.50
2023-04-03T10:04:38.316Z,0.57
2023-04-03T10:07:05.683Z,0.60
2023-04-03T10:09:34.932Z,0.38
2023-04-03T10:12:05.700Z,0.98
2023-04-03T10:14:37.260Z,0.50
2023-04-03T10:17:07.838Z,0.50
2023-04-03T10:19:37.743Z,0.40
2023-04-03T10:24:38.036Z,1.30
2023-04-03T10:27:07.958Z,0.70
2023-04-03T10:29:41.990Z,0.52
2023-04-03T10:32:17.707Z,0.47
2023-04-03T10:34:54.735Z,0.55
2023-04-03T10:37:27.050Z,0.80
2023-04-03T10:39:58.449Z,0.98
2023-04-03T10:42:30.725Z,0.35
2023-04-03T10:45:04.024Z,0.60
2023-04-03T10:47:36.569Z,0.45
2023-04-03T10:50:14.423Z,0.40
2023-04-03T10:52:44.388Z,0.60
2023-04-03T10:55:18.753Z,0.70
2023-04-03T10:57:46.627Z,0.55
2023-04-03T11:00:19.257Z,0.60
2023-04-03T11:02:50.452Z,0.60
2023-04-03T11:05:20.720Z,1.00
2023-04-03T11:07:49.605Z,0.63
2023-04-03T11:10:20.423Z,0.50
2023-04-03T11:12:49.573Z,0.70
2023-04-03T11:15:19.504Z,0.88
2023-04-03T11:17:51.214Z,0.60
2023-04-03T11:20:20.496Z,0.40
2023-04-03T11:22:51.033Z,0.68
2023-04-03T11:25:23.281Z,0.52
2023-04-03T11:27:53.109Z,0.50
2023-04-03T11:33:18.444Z,0.43
2023-04-03T11:35:49.062Z,0.45
2023-04-03T11:38:20.015Z,0.50
2023-04-03T11:40:48.749Z,0.60
2023-04-03T11:43:23.334Z,0.80
2023-04-03T11:45:55.866Z,0.40
2023-04-03T11:48:44.041Z,0.52
2023-04-03T11:51:26.352Z,0.90
2023-04-03T11:53:55.135Z,0.52
2023-04-03T11:56:31.312Z,0.57
2023-04-03T11:59:19.429Z,0.65
2023-04-03T12:01:47.723Z,0.45
2023-04-03T12:04:16.895Z,0.70
2023-04-03T12:07:02.387Z,0.57
2023-04-03T12:09:56.468Z,0.60
2023-04-03T12:12:30.759Z,0.90
2023-04-03T12:15:13.634Z,0.90
2023-04-03T12:17:41.242Z,0.95
2023-04-03T12:20:23.548Z,0.52
2023-04-03T12:23:06.850Z,0.60
2023-04-03T12:25:50.757Z,0.65
2023-04-03T12:28:19.497Z,0.63
2023-04-03T12:30:47.711Z,0.70
2023-04-03T12:33:20.514Z,1.13
2023-04-03T12:35:53.847Z,0.75
2023-04-03T12:38:34.489Z,0.60
2023-04-03T12:41:13.042Z,0.65
2023-04-03T12:43:52.528Z,0.73
2023-04-03T12:46:21.164Z,0.60
2023-04-03T12:48:50.069Z,0.52
2023-04-03T12:51:19.427Z,0.80
2023-04-03T12:53:47.604Z,1.00
2023-04-03T12:56:22.515Z,0.70
2023-04-03T12:58:51.418Z,0.60
2023-04-03T13:01:20.628Z,0.83
2023-04-03T13:03:49.991Z,0.63
2023-04-03T13:06:20.021Z,0.70
2023-04-03T13:08:50.879Z,0.73
2023-04-03T13:11:18.774Z,0.60
2023-04-03T13:13:57.123Z,0.70
2023-04-03T13:16:24.615Z,1.80
2023-04-03T13:18:53.139Z,0.57
2023-04-03T13:21:21.699Z,0.50
2023-04-03T13:23:53.236Z,0.75
2023-04-03T13:26:27.099Z,0.40
2023-04-03T13:28:55.022Z,0.65
2023-04-03T13:31:27.100Z,0.70
2023-04-03T13:33:56.411Z,0.73
2023-04-03T13:36:24.863Z,0.60
2023-04-03T13:38:59.980Z,0.47
2023-04-03T13:41:30.776Z,0.60
2023-04-03T13:44:10.312Z,1.02
2023-04-03T13:46:41.128Z,0.50
2023-04-03T13:49:21.246Z,0.55
2023-04-03T13:51:54.184Z,0.80
2023-04-03T13:54:33.159Z,0.90
2023-04-03T13:57:01.434Z,1.05
2023-04-03T13:59:30.567Z,0.50
2023-04-03T14:02:11.949Z,0.60
2023-04-03T14:04:47.128Z,0.40
2023-04-03T14:07:15.663Z,0.60
2023-04-03T14:09:45.956Z,0.57
2023-04-03T14:12:30.176Z,0.50
2023-04-03T14:14:58.707Z,0.75
2023-04-03T14:17:30.650Z,0.80
2023-04-03T14:19:59.017Z,1.00
2023-04-03T14:22:29.289Z,0.70
2023-04-03T14:24:57.189Z,1.30
2023-04-03T14:27:25.712Z,0.60
2023-04-03T14:29:54.047Z,0.70
2023-04-03T14:32:23.236Z,0.88
2023-04-03T14:34:53.277Z,0.55
2023-04-03T14:37:22.232Z,0.70
2023-04-03T14:39:55.001Z,1.00
2023-04-03T14:42:23.853Z,0.88
2023-04-03T14:44:51.370Z,0.50
2023-04-03T14:47:30.509Z,0.80
2023-04-03T14:50:00.958Z,1.00
2023-04-03T14:52:30.438Z,0.57
2023-04-03T14:54:58.234Z,0.98
2023-04-03T14:57:27.080Z,0.60
2023-04-03T14:59:54.570Z,0.70
2023-04-03T15:02:30.442Z,0.45
2023-04-03T15:05:00.270Z,0.80
2023-04-03T15:07:30.573Z,0.70
2023-04-03T15:09:58.174Z,0.50
2023-04-03T15:12:28.078Z,0.93
2023-04-03T15:17:29.384Z,0.57
2023-04-03T15:19:56.945Z,0.55
2023-04-03T15:22:26.180Z,0.90
2023-04-03T15:24:54.932Z,0.52
2023-04-03T15:27:22.442Z,0.70
2023-04-03T15:29:49.834Z,0.60
2023-04-03T15:32:17.335Z,0.73
2023-04-03T15:34:48.456Z,0.80
2023-04-03T15:37:16.045Z,0.43
2023-04-03T15:39:46.728Z,0.75
2023-04-03T15:42:15.548Z,0.80
2023-04-03T15:44:43.159Z,0.57
2023-04-03T15:47:10.581Z,1.00
2023-04-03T15:49:38.257Z,0.73
2023-04-03T15:52:05.929Z,1.25
2023-04-03T15:54:33.407Z,1.42
2023-04-03T15:57:00.909Z,0.60
2023-04-03T15:59:30.684Z,1.02
2023-04-03T16:01:58.369Z,0.70
2023-04-03T16:04:25.995Z,0.95
2023-04-03T16:06:53.637Z,0.70
2023-04-03T16:09:21.142Z,0.60
2023-04-03T16:11:48.611Z,0.60
2023-04-03T16:14:16.316Z,1.40
2023-04-03T16:16:49.871Z,0.90
2023-04-03T16:19:17.409Z,0.73
2023-04-03T16:21:47.650Z,0.60
2023-04-03T16:24:17.248Z,0.80
2023-04-03T16:26:46.693Z,0.65
2023-04-03T16:29:14.364Z,0.73
2023-04-03T16:31:41.987Z,1.15
2023-04-03T16:34:11.540Z,0.70
2023-04-03T16:36:39.599Z,0.60
2023-04-03T16:39:07.122Z,0.77
2023-04-03T16:41:34.607Z,0.50
2023-04-03T16:44:02.122Z,0.65
2023-04-03T16:46:31.896Z,0.60
2023-04-03T16:51:28.357Z,0.75
2023-04-03T16:53:58.580Z,0.50
2023-04-03T16:56:27.695Z,0.50
2023-04-03T16:58:55.485Z,1.15
2023-04-03T17:01:23.780Z,1.02
2023-04-03T17:03:51.359Z,0.80
2023-04-03T17:06:19.833Z,1.00
2023-04-03T17:08:49.376Z,0.88
2023-04-03T17:11:19.772Z,1.38
2023-04-03T17:13:51.061Z,1.20
2023-04-03T17:16:18.691Z,0.68
2023-04-03T17:18:48.034Z,0.90
2023-04-03T17:21:18.187Z,0.73
2023-04-03T17:23:49.416Z,0.70
2023-04-03T17:26:18.410Z,0.93
2023-04-03T17:28:46.869Z,0.80
2023-04-03T17:31:14.499Z,0.82
2023-04-03T17:33:41.978Z,0.50
2023-04-03T17:36:09.720Z,0.68
2023-04-03T17:38:37.160Z,0.75
2023-04-03T17:41:08.722Z,0.90
2023-04-03T17:43:37.621Z,0.75
2023-04-03T17:46:06.272Z,0.70
2023-04-03T17:48:34.255Z,0.65
2023-04-03T17:51:04.670Z,1.08
2023-04-03T17:53:32.067Z,0.90
2023-04-03T17:55:59.450Z,0.75
2023-04-03T17:58:28.283Z,0.50
2023-04-03T18:00:57.861Z,0.70
2023-04-03T18:03:26.880Z,0.80
2023-04-03T18:05:55.489Z,1.55
2023-04-03T18:08:23.545Z,1.15
2023-04-03T18:10:51.301Z,1.50
2023-04-03T18:13:18.773Z,1.58
2023-04-03T18:15:46.353Z,1.20
2023-04-03T18:18:16.000Z,1.10
2023-04-03T18:20:43.512Z,0.82
2023-04-03T18:23:11.342Z,0.90
2023-04-03T18:25:38.946Z,0.90
2023-04-03T18:28:06.747Z,0.90
2023-04-03T18:30:34.976Z,1.13
2023-04-03T18:33:02.510Z,1.10
2023-04-03T18:35:31.289Z,0.73
2023-04-03T18:37:58.731Z,1.08
2023-04-03T18:40:26.162Z,1.15
2023-04-03T18:42:53.594Z,1.00
2023-04-03T18:45:22.527Z,1.15
2023-04-03T18:47:50.168Z,0.80
2023-04-03T18:50:17.993Z,1.02
2023-04-03T18:52:50.541Z,0.60
2023-04-03T18:55:19.030Z,1.20
2023-04-03T18:57:49.494Z,1.05
2023-04-03T19:00:18.080Z,1.30
2023-04-03T19:02:48.083Z,1.38
2023-04-03T19:05:17.918Z,1.50
2023-04-03T19:07:47.161Z,1.48
2023-04-03T19:10:17.370Z,1.38
2023-04-03T19:12:45.818Z,1.42
2023-04-03T19:15:13.792Z,0.98
2023-04-03T19:17:44.311Z,1.60
2023-04-03T19:20:13.279Z,1.30
2023-04-03T19:22:41.304Z,1.43
2023-04-03T19:25:11.137Z,1.45
2023-04-03T19:30:06.346Z,0.95
2023-04-03T19:32:34.291Z,0.98
2023-04-03T19:35:02.158Z,1.05
2023-04-03T19:37:32.426Z,1.48
2023-04-03T19:40:01.621Z,1.45
2023-04-03T19:42:31.429Z,1.00
2023-04-03T19:47:26.243Z,0.85
2023-04-03T19:49:53.666Z,1.10
2023-04-03T19:52:21.108Z,1.35
2023-04-03T19:54:49.293Z,0.95
2023-04-03T19:57:17.965Z,1.23
2023-04-03T19:59:49.471Z,0.93
2023-04-03T20:02:18.197Z,1.35
2023-04-03T20:04:45.685Z,1.50
2023-04-03T20:07:13.428Z,1.30
2023-04-03T20:09:41.670Z,1.00
2023-04-03T20:12:12.499Z,1.10
2023-04-03T20:14:41.188Z,0.85
2023-04-03T20:17:09.972Z,0.80
2023-04-03T20:19:40.721Z,0.82
2023-04-03T20:22:08.259Z,1.17
2023-04-03T20:24:35.986Z,1.00
2023-04-03T20:27:03.516Z,0.88
2023-04-03T20:29:31.161Z,1.20
2023-04-03T20:31:58.935Z,0.88
2023-04-03T20:34:27.741Z,1.10
2023-04-03T20:36:55.257Z,0.80
2023-04-03T20:39:27.302Z,1.08
2023-04-03T20:41:54.751Z,1.33
2023-04-03T20:44:22.229Z,1.17
2023-04-03T20:46:53.339Z,0.93
2023-04-03T20:49:22.981Z,1.55
2023-04-03T20:51:52.154Z,1.27
2023-04-03T20:54:19.835Z,1.20
2023-04-03T20:56:49.884Z,1.25
2023-04-03T20:59:18.402Z,0.95
2023-04-03T21:01:46.910Z,1.00
2023-04-03T21:04:17.044Z,0.82
2023-04-03T21:07:03.583Z,0.80
2023-04-03T21:09:50.172Z,1.05
2023-04-03T21:12:36.367Z,1.00
2023-04-03T21:15:22.500Z,1.10
2023-04-03T21:18:01.545Z,1.45
2023-04-03T21:20:29.070Z,0.98
2023-04-03T21:22:56.471Z,1.58
2023-04-03T21:25:23.967Z,1.73
2023-04-03T21:27:51.642Z,1.45
2023-04-03T21:30:19.111Z,1.20
2023-04-03T21:32:46.807Z,1.35
2023-04-03T21:35:15.984Z,1.20
2023-04-03T21:37:44.527Z,1.20
2023-04-03T21:40:12.516Z,1.60
2023-04-03T21:42:40.020Z,1.90
2023-04-03T21:45:07.987Z,1.90
2023-04-03T21:47:36.604Z,1.52
2023-04-03T21:50:04.066Z,1.67
2023-04-03T21:52:32.811Z,1.10
2023-04-03T21:55:00.215Z,1.40
2023-04-03T21:57:27.792Z,1.30
2023-04-03T21:59:55.270Z,1.52
2023-04-03T22:02:22.760Z,2.40
2023-04-03T22:04:50.167Z,2.22
2023-04-03T22:07:17.597Z,1.83
2023-04-03T22:09:46.454Z,2.15
2023-04-03T22:12:13.876Z,1.90
2023-04-03T22:14:41.320Z,1.77
2023-04-03T22:17:08.775Z,1.67
2023-04-03T22:19:36.146Z,1.60
2023-04-03T22:22:03.892Z,2.05
2023-04-03T22:24:31.289Z,1.67
2023-04-03T22:27:00.034Z,1.80
2023-04-03T22:29:28.168Z,1.60
2023-04-03T22:31:55.819Z,1.92
2023-04-03T22:34:24.499Z,1.95
2023-04-03T22:36:53.582Z,2.33
2023-04-03T22:39:22.247Z,2.80
2023-04-03T22:41:50.440Z,2.38
2023-04-03T22:44:19.129Z,2.72
2023-04-03T22:46:46.664Z,2.30
2023-04-03T22:49:14.114Z,2.70
2023-04-03T22:51:41.609Z,3.03
2023-04-03T22:54:09.015Z,2.50
2023-04-03T22:56:36.517Z,2.33
2023-04-03T22:59:04.114Z,1.98
2023-04-03T23:01:32.920Z,2.00
2023-04-03T23:04:00.693Z,1.88
2023-04-03T23:06:28.152Z,1.77
2023-04-03T23:08:55.877Z,1.98
2023-04-03T23:11:23.448Z,2.10
2023-04-03T23:13:51.158Z,1.95
2023-04-03T23:16:18.672Z,1.52
2023-04-03T23:18:49.928Z,1.27
2023-04-03T23:21:17.429Z,1.23
2023-04-03T23:23:44.809Z,1.70
2023-04-03T23:26:12.479Z,2.05
2023-04-03T23:28:41.763Z,1.85
2023-04-03T23:31:10.291Z,1.38
2023-04-03T23:33:38.176Z,1.23
2023-04-03T23:36:08.945Z,1.38
2023-04-03T23:38:36.860Z,1.38
2023-04-03T23:41:04.383Z,1.27
2023-04-03T23:43:32.339Z,1.20
2023-04-03T23:45:59.829Z,1.52
2023-04-03T23:48:27.247Z,1.50
2023-04-03T23:50:54.679Z,1.40
2023-04-03T23:53:23.388Z,0.95
2023-04-03T23:55:51.058Z,1.40
2023-04-03T23:58:18.526Z,1.20
